Time;durP1;ratioP1;P1;durP2;ratioP2;P2;SDS_P1;SDS_P2;PMS_P1;PMS_P2;Temp;Humidity;BMP_temperature;BMP_pressure;BME280_temperature;BME280_humidity;BME280_pressure;Samples;Min_cycle;Max_cycle;Signal;HPM_P1;HPM_P2
2023/09/27 00:02:31;;;;;;;8.38;5.15;;;16.10;99.90;;;;;;5082458;28;20105;-76
2023/09/27 00:05:17;;;;;;;10.55;6.88;;;16.10;99.90;;;;;;5087574;28;20082;-76
2023/09/27 00:08:04;;;;;;;13.93;6.18;;;16.00;99.90;;;;;;5086866;28;20047;-76
2023/09/27 00:10:50;;;;;;;8.55;6.07;;;16.10;99.90;;;;;;5085408;28;20047;-75
2023/09/27 00:13:36;;;;;;;7.55;5.72;;;16.10;99.90;;;;;;5081057;28;20032;-76
2023/09/27 00:16:22;;;;;;;9.73;6.22;;;16.10;99.90;;;;;;5084084;28;20538;-75
2023/09/27 00:19:09;;;;;;;8.63;5.57;;;16.00;99.90;;;;;;5087891;28;20040;-76
2023/09/27 00:21:55;;;;;;;9.93;5.65;;;16.00;99.90;;;;;;5099409;28;20047;-76
2023/09/27 00:24:41;;;;;;;9.93;5.35;;;16.00;99.90;;;;;;5094686;28;20071;-75
2023/09/27 00:27:27;;;;;;;10.90;5.60;;;16.00;99.90;;;;;;5095948;28;20494;-75
2023/09/27 00:30:14;;;;;;;10.35;5.55;;;15.90;99.90;;;;;;5067726;28;20039;-75
2023/09/27 00:33:00;;;;;;;10.43;6.15;;;15.90;99.90;;;;;;5091510;28;20050;-75
2023/09/27 00:35:49;;;;;;;10.30;6.28;;;15.90;99.90;;;;;;5101264;28;20101;-76
2023/09/27 00:38:36;;;;;;;11.10;6.55;;;15.90;99.90;;;;;;5082855;28;20048;-76
2023/09/27 00:41:23;;;;;;;11.00;6.40;;;15.80;99.90;;;;;;5078010;28;20036;-77
2023/09/27 00:44:10;;;;;;;13.80;7.32;;;15.90;99.90;;;;;;5059645;28;20047;-74
2023/09/27 00:46:56;;;;;;;9.65;6.72;;;15.80;99.90;;;;;;5074763;28;20140;-77
2023/09/27 00:49:42;;;;;;;8.05;6.22;;;15.80;99.90;;;;;;5094698;28;20063;-76
2023/09/27 00:52:28;;;;;;;7.28;5.68;;;15.80;99.90;;;;;;5086177;28;20036;-76
2023/09/27 00:55:14;;;;;;;11.23;6.57;;;15.80;99.90;;;;;;5085099;28;20040;-76
2023/09/27 00:58:00;;;;;;;11.25;6.25;;;15.80;99.90;;;;;;5079475;28;20134;-76
2023/09/27 01:00:50;;;;;;;8.05;5.75;;;15.80;99.90;;;;;;5091098;28;20054;-76
2023/09/27 01:03:36;;;;;;;9.57;6.47;;;15.70;99.90;;;;;;5090290;28;20177;-76
2023/09/27 01:06:27;;;;;;;8.38;6.18;;;15.60;99.90;;;;;;5067695;28;20155;-76
2023/09/27 01:09:13;;;;;;;8.38;6.40;;;15.60;99.90;;;;;;5089673;28;20528;-76
2023/09/27 01:11:59;;;;;;;10.15;6.47;;;15.60;99.90;;;;;;5087943;28;20464;-76
2023/09/27 01:14:45;;;;;;;11.10;6.35;;;15.60;99.90;;;;;;5088011;28;20036;-76
2023/09/27 01:17:31;;;;;;;8.32;6.18;;;15.60;99.90;;;;;;5073761;28;20369;-76
2023/09/27 01:20:17;;;;;;;9.23;6.13;;;15.60;99.90;;;;;;5101644;28;20051;-76
2023/09/27 01:23:05;;;;;;;7.72;6.38;;;15.50;99.90;;;;;;5083798;28;20488;-77
2023/09/27 01:25:59;;;;;;;13.45;7.03;;;15.50;99.90;;;;;;5069082;28;20052;-77
2023/09/27 01:28:46;;;;;;;8.43;6.35;;;15.50;99.90;;;;;;5082013;28;20369;-76
2023/09/27 01:31:33;;;;;;;10.13;6.90;;;15.50;99.90;;;;;;5071134;28;20036;-75
2023/09/27 01:34:19;;;;;;;8.95;5.85;;;15.50;99.90;;;;;;5086289;28;20051;-76
2023/09/27 01:37:07;;;;;;;7.57;6.18;;;15.50;99.90;;;;;;5077574;28;20106;-76
2023/09/27 01:39:54;;;;;;;10.05;6.00;;;15.50;99.90;;;;;;5096095;28;20527;-76
2023/09/27 01:42:43;;;;;;;7.82;6.07;;;15.50;99.90;;;;;;5063018;28;20044;-76
2023/09/27 01:45:29;;;;;;;14.65;6.97;;;15.50;99.90;;;;;;5045597;28;20377;-76
2023/09/27 01:48:15;;;;;;;9.27;6.25;;;15.50;99.90;;;;;;5054583;28;20033;-76
2023/09/27 01:51:02;;;;;;;8.75;6.03;;;15.50;99.90;;;;;;5077261;28;20365;-76
2023/09/27 01:53:48;;;;;;;8.85;5.97;;;15.40;99.90;;;;;;5082004;28;20052;-76
2023/09/27 01:56:34;;;;;;;9.57;6.25;;;15.40;99.90;;;;;;5075505;28;20040;-76
2023/09/27 01:59:20;;;;;;;11.07;6.93;;;15.40;99.90;;;;;;5098988;28;20326;-76
2023/09/27 02:02:06;;;;;;;8.52;6.70;;;15.40;99.90;;;;;;5044245;28;20131;-77
2023/09/27 02:04:52;;;;;;;8.57;6.43;;;15.40;99.90;;;;;;5075704;28;20036;-77
2023/09/27 02:07:38;;;;;;;7.80;5.97;;;15.40;99.90;;;;;;5083149;28;20050;-76
2023/09/27 02:10:24;;;;;;;9.55;6.85;;;15.40;99.90;;;;;;5079181;28;20053;-76
2023/09/27 02:13:10;;;;;;;12.23;6.13;;;15.40;99.90;;;;;;5071703;28;20484;-76
2023/09/27 02:15:58;;;;;;;12.73;6.32;;;15.30;99.90;;;;;;5064407;28;20047;-76
2023/09/27 02:18:44;;;;;;;13.77;6.20;;;15.30;99.90;;;;;;5084131;28;20595;-76
2023/09/27 02:21:30;;;;;;;10.82;6.15;;;15.30;99.90;;;;;;5101325;28;20993;-76
2023/09/27 02:24:16;;;;;;;8.55;5.95;;;15.30;99.90;;;;;;5071173;28;20040;-76
2023/09/27 02:27:02;;;;;;;8.05;6.35;;;15.30;99.90;;;;;;5076063;28;20079;-76
2023/09/27 02:29:48;;;;;;;9.10;6.25;;;15.30;99.90;;;;;;5080236;28;20043;-75
2023/09/27 02:32:34;;;;;;;8.63;6.90;;;15.30;99.90;;;;;;5092521;28;20031;-75
2023/09/27 02:35:21;;;;;;;8.93;6.43;;;15.30;99.90;;;;;;5059640;28;20102;-73
2023/09/27 02:38:06;;;;;;;11.10;6.72;;;15.20;99.90;;;;;;5085572;28;20035;-74
2023/09/27 02:40:54;;;;;;;8.00;6.57;;;15.20;99.90;;;;;;5067232;28;20055;-74
2023/09/27 02:43:40;;;;;;;11.85;6.80;;;15.20;99.90;;;;;;5100304;28;20101;-74
2023/09/27 02:46:26;;;;;;;10.23;6.63;;;15.20;99.90;;;;;;5047379;28;20049;-74
2023/09/27 02:49:13;;;;;;;11.30;6.50;;;15.20;99.90;;;;;;5070616;28;20369;-74
2023/09/27 02:51:59;;;;;;;13.57;7.15;;;15.20;99.90;;;;;;5091169;28;20032;-74
2023/09/27 02:54:45;;;;;;;9.38;6.25;;;15.10;99.90;;;;;;5066257;28;20032;-74
2023/09/27 02:57:31;;;;;;;14.52;6.90;;;15.10;99.90;;;;;;5072609;28;20155;-74
2023/09/27 03:00:20;;;;;;;11.50;8.02;;;15.10;99.90;;;;;;5087582;28;20073;-73
2023/09/27 03:03:07;;;;;;;12.73;6.10;;;15.10;99.90;;;;;;5079594;28;20051;-74
2023/09/27 03:05:53;;;;;;;10.48;6.53;;;15.10;99.90;;;;;;5070756;28;20345;-74
2023/09/27 03:08:39;;;;;;;8.10;6.32;;;15.00;99.90;;;;;;5088931;28;20040;-74
2023/09/27 03:11:25;;;;;;;8.20;6.15;;;15.00;99.90;;;;;;5086806;28;20040;-75
2023/09/27 03:14:11;;;;;;;8.95;6.47;;;15.00;99.90;;;;;;5074230;28;20032;-74
2023/09/27 03:16:57;;;;;;;9.38;6.47;;;15.10;99.90;;;;;;5086737;28;20125;-74
2023/09/27 03:19:46;;;;;;;9.15;6.30;;;15.00;99.90;;;;;;5067240;28;20381;-74
2023/09/27 03:22:32;;;;;;;10.40;6.50;;;15.00;99.90;;;;;;5070996;28;20460;-74
2023/09/27 03:25:18;;;;;;;10.00;6.70;;;15.00;99.90;;;;;;5095562;27;20073;-74
2023/09/27 03:28:04;;;;;;;10.38;6.97;;;15.00;99.90;;;;;;5104760;27;20039;-74
2023/09/27 03:30:50;;;;;;;9.30;6.90;;;15.00;99.90;;;;;;5090372;27;20279;-74
2023/09/27 03:33:36;;;;;;;8.52;6.07;;;15.00;99.90;;;;;;5065983;28;20036;-74
2023/09/27 03:36:22;;;;;;;7.97;5.65;;;15.00;99.90;;;;;;5107061;28;20416;-76
2023/09/27 03:39:08;;;;;;;11.57;6.60;;;15.00;99.90;;;;;;5105750;28;20044;-74
2023/09/27 03:41:54;;;;;;;8.32;6.13;;;14.90;99.90;;;;;;5090722;28;20040;-74
2023/09/27 03:44:40;;;;;;;7.97;6.45;;;14.90;99.90;;;;;;5095512;27;20126;-74
2023/09/27 03:47:27;;;;;;;9.85;6.78;;;14.80;99.90;;;;;;5100997;27;20321;-74
2023/09/27 03:50:13;;;;;;;8.93;7.05;;;14.80;99.90;;;;;;5096423;28;20376;-74
2023/09/27 03:52:59;;;;;;;7.55;6.47;;;14.80;99.90;;;;;;5085981;27;20330;-74
2023/09/27 03:55:45;;;;;;;9.25;6.68;;;14.80;99.90;;;;;;5101405;28;20035;-74
2023/09/27 03:58:31;;;;;;;8.90;6.50;;;14.80;99.90;;;;;;5091243;28;20032;-74
2023/09/27 04:01:16;;;;;;;8.93;6.72;;;14.80;99.90;;;;;;5075055;28;20086;-74
2023/09/27 04:04:04;;;;;;;9.90;6.78;;;14.80;99.90;;;;;;5092767;28;20463;-74
2023/09/27 04:06:51;;;;;;;15.85;6.95;;;14.70;99.90;;;;;;5093799;27;20459;-74
2023/09/27 04:09:37;;;;;;;9.98;6.70;;;14.70;99.90;;;;;;5070170;28;20127;-74
2023/09/27 04:12:23;;;;;;;11.93;7.13;;;14.70;99.90;;;;;;5084921;27;20408;-74
2023/09/27 04:15:10;;;;;;;9.57;7.00;;;14.70;99.90;;;;;;5087938;28;20043;-74
2023/09/27 04:17:56;;;;;;;8.75;5.88;;;14.70;99.90;;;;;;5083988;27;20086;-74
2023/09/27 04:20:42;;;;;;;7.57;5.95;;;14.70;99.90;;;;;;5065477;28;20125;-74
2023/09/27 04:23:28;;;;;;;10.68;6.57;;;14.70;99.90;;;;;;5067897;28;20499;-74
2023/09/27 04:26:14;;;;;;;10.18;6.78;;;14.60;99.90;;;;;;5099077;28;20078;-74
2023/09/27 04:29:00;;;;;;;13.55;6.60;;;14.60;99.90;;;;;;5086161;28;20078;-74
2023/09/27 04:31:46;;;;;;;11.18;7.10;;;14.60;99.90;;;;;;5086831;27;20043;-74
2023/09/27 04:34:32;;;;;;;8.25;6.47;;;14.60;99.90;;;;;;5079253;27;20035;-73
2023/09/27 04:37:18;;;;;;;7.60;5.82;;;14.60;99.90;;;;;;5106639;27;20039;-74
2023/09/27 04:40:14;;;;;;;8.13;5.70;;;14.50;99.90;;;;;;5081724;28;20507;-74
2023/09/27 04:43:01;;;;;;;14.25;7.07;;;14.50;99.90;;;;;;5088532;28;20047;-74
2023/09/27 04:45:49;;;;;;;9.33;6.93;;;14.50;99.90;;;;;;5071126;28;20115;-74
2023/09/27 04:48:35;;;;;;;9.93;8.03;;;14.50;99.90;;;;;;5093634;27;20326;-74
2023/09/27 04:51:21;;;;;;;11.02;7.68;;;14.50;99.90;;;;;;5097723;28;20035;-74
2023/09/27 04:54:07;;;;;;;10.20;8.43;;;14.50;99.90;;;;;;5093272;27;20053;-74
2023/09/27 04:56:53;;;;;;;11.07;7.25;;;14.50;99.90;;;;;;5106511;27;20547;-74
2023/09/27 04:59:39;;;;;;;11.18;8.07;;;14.50;99.90;;;;;;5103856;27;20054;-74
2023/09/27 05:02:25;;;;;;;12.20;6.95;;;14.50;99.90;;;;;;5098603;28;20054;-74
2023/09/27 05:05:12;;;;;;;13.82;7.82;;;14.50;99.90;;;;;;5099722;27;20047;-74
2023/09/27 05:07:58;;;;;;;9.98;7.03;;;14.50;99.90;;;;;;5092256;28;20035;-74
2023/09/27 05:10:44;;;;;;;9.38;7.13;;;14.50;99.90;;;;;;5097835;27;20035;-74
2023/09/27 05:13:30;;;;;;;10.15;7.22;;;14.40;99.90;;;;;;5091896;28;20040;-74
2023/09/27 05:16:16;;;;;;;11.68;6.72;;;14.40;99.90;;;;;;5094013;28;20050;-74
2023/09/27 05:19:02;;;;;;;8.80;6.32;;;14.40;99.90;;;;;;5071260;27;20040;-74
2023/09/27 05:21:49;;;;;;;10.70;6.90;;;14.40;99.90;;;;;;5064021;28;20142;-74
2023/09/27 05:24:38;;;;;;;12.40;6.85;;;14.40;99.90;;;;;;5093491;28;20044;-74
2023/09/27 05:27:24;;;;;;;8.50;6.72;;;14.20;99.90;;;;;;5078106;28;20055;-74
2023/09/27 05:30:11;;;;;;;9.20;7.55;;;14.20;99.90;;;;;;5045378;28;20036;-74
2023/09/27 05:32:57;;;;;;;11.90;7.40;;;14.20;99.90;;;;;;5101417;28;20050;-74
2023/09/27 05:35:43;;;;;;;8.75;7.13;;;14.10;99.90;;;;;;5058843;28;20036;-74
2023/09/27 05:38:29;;;;;;;12.52;7.97;;;14.20;99.90;;;;;;5082342;28;20044;-74
2023/09/27 05:41:15;;;;;;;8.25;6.65;;;14.20;99.90;;;;;;5063660;28;20082;-74
2023/09/27 05:44:01;;;;;;;9.15;6.65;;;14.20;99.90;;;;;;5078896;28;20127;-74
2023/09/27 05:46:47;;;;;;;9.52;7.13;;;14.20;99.90;;;;;;5068175;28;20493;-74
2023/09/27 05:49:34;;;;;;;9.93;6.97;;;14.20;99.90;;;;;;5055654;28;20531;-74
2023/09/27 05:52:20;;;;;;;9.07;6.43;;;14.20;99.90;;;;;;5106871;28;20383;-74
2023/09/27 05:55:07;;;;;;;10.65;7.25;;;14.20;99.90;;;;;;5069648;28;20047;-74
2023/09/27 05:57:54;;;;;;;11.20;6.90;;;14.20;99.90;;;;;;5095256;28;20448;-74
2023/09/27 06:00:42;;;;;;;9.88;6.68;;;14.20;99.90;;;;;;5088994;28;20384;-74
2023/09/27 06:03:30;;;;;;;12.00;6.60;;;14.20;99.90;;;;;;5068008;28;20036;-73
2023/09/27 06:06:17;;;;;;;9.27;6.65;;;14.10;99.90;;;;;;5059910;28;20574;-74
2023/09/27 06:09:05;;;;;;;7.53;6.30;;;14.10;99.90;;;;;;5063465;28;20047;-74
2023/09/27 06:11:52;;;;;;;11.38;7.10;;;14.20;99.90;;;;;;5066138;28;20374;-74
2023/09/27 06:14:38;;;;;;;11.55;6.43;;;14.20;99.90;;;;;;5062813;28;20424;-73
2023/09/27 06:17:24;;;;;;;9.82;7.53;;;14.20;99.90;;;;;;5069595;28;20036;-74
2023/09/27 06:20:20;;;;;;;8.85;6.80;;;14.20;99.90;;;;;;5091858;28;20104;-74
2023/09/27 06:23:06;;;;;;;9.55;6.90;;;14.20;99.90;;;;;;5056979;28;20048;-74
2023/09/27 06:25:52;;;;;;;11.27;7.50;;;14.20;99.90;;;;;;5078263;28;20522;-73
2023/09/27 06:28:38;;;;;;;11.57;7.45;;;14.30;99.90;;;;;;5104318;28;20043;-73
2023/09/27 06:31:24;;;;;;;10.65;7.22;;;14.30;99.90;;;;;;5068780;28;20093;-73
2023/09/27 06:34:11;;;;;;;11.40;7.28;;;14.40;99.90;;;;;;5093014;28;20074;-74
2023/09/27 06:36:57;;;;;;;8.98;7.15;;;14.40;99.90;;;;;;5109870;28;20126;-73
2023/09/27 06:39:43;;;;;;;8.40;6.68;;;14.40;99.90;;;;;;5079833;28;20155;-74
2023/09/27 06:42:29;;;;;;;10.30;7.30;;;14.40;99.90;;;;;;5106969;28;20079;-74
2023/09/27 06:45:15;;;;;;;12.00;7.65;;;14.50;99.90;;;;;;5078691;28;20047;-74
2023/09/27 06:48:02;;;;;;;11.35;7.63;;;14.50;99.90;;;;;;5096418;28;20067;-74
2023/09/27 06:50:48;;;;;;;9.30;7.20;;;14.50;99.90;;;;;;5072919;28;20100;-74
2023/09/27 06:53:34;;;;;;;9.00;7.25;;;14.50;99.90;;;;;;5097690;28;20103;-73
2023/09/27 06:56:20;;;;;;;11.48;7.95;;;14.60;99.90;;;;;;5096416;28;20054;-74
2023/09/27 06:59:07;;;;;;;15.27;10.02;;;14.60;99.90;;;;;;5084972;28;20456;-74
2023/09/27 07:01:53;;;;;;;16.33;9.30;;;14.70;99.90;;;;;;5090973;28;20736;-76
2023/09/27 07:04:42;;;;;;;10.75;7.47;;;14.70;99.90;;;;;;5098129;28;20051;-76
2023/09/27 07:07:29;;;;;;;12.27;7.00;;;14.80;99.90;;;;;;5081692;28;20043;-76
2023/09/27 07:10:15;;;;;;;9.07;7.05;;;14.90;99.90;;;;;;5093540;28;20042;-76
2023/09/27 07:13:01;;;;;;;10.50;7.40;;;14.90;99.90;;;;;;5070768;28;20087;-76
2023/09/27 07:15:48;;;;;;;9.75;6.80;;;15.00;99.90;;;;;;5065112;28;20055;-76
2023/09/27 07:18:35;;;;;;;9.98;6.60;;;15.00;99.90;;;;;;5084513;28;20384;-76
2023/09/27 07:21:21;;;;;;;9.63;6.93;;;15.10;99.90;;;;;;5066583;28;20044;-76
2023/09/27 07:24:09;;;;;;;7.05;6.25;;;15.20;99.90;;;;;;5067458;28;20043;-76
2023/09/27 07:26:55;;;;;;;7.25;5.85;;;15.30;99.90;;;;;;5096336;28;20055;-76
2023/09/27 07:29:41;;;;;;;10.38;6.45;;;15.40;99.90;;;;;;5061713;28;20032;-76
2023/09/27 07:32:28;;;;;;;10.57;5.82;;;15.50;99.90;;;;;;5077464;28;20127;-75
2023/09/27 07:35:16;;;;;;;8.52;5.90;;;15.60;99.90;;;;;;5099496;28;20036;-74
2023/09/27 07:38:03;;;;;;;7.80;4.82;;;15.70;99.90;;;;;;5088452;28;20132;-75
2023/09/27 07:40:49;;;;;;;8.43;5.00;;;15.80;99.90;;;;;;5097596;28;20039;-75
2023/09/27 07:43:36;;;;;;;6.55;4.85;;;15.80;99.90;;;;;;5101418;28;20043;-75
2023/09/27 07:46:22;;;;;;;8.48;5.60;;;15.90;99.90;;;;;;5093958;28;20043;-75
2023/09/27 07:49:08;;;;;;;7.20;5.60;;;16.00;99.90;;;;;;5098701;27;20039;-75
2023/09/27 07:51:54;;;;;;;8.82;6.25;;;16.10;99.90;;;;;;5108178;27;20035;-75
2023/09/27 07:54:40;;;;;;;9.02;6.10;;;16.20;99.90;;;;;;5074351;28;20066;-75
2023/09/27 07:57:27;;;;;;;8.15;5.80;;;16.30;99.90;;;;;;5096107;28;20035;-75
2023/09/27 08:00:18;;;;;;;8.70;5.60;;;16.40;99.90;;;;;;5114212;27;20058;-75
2023/09/27 08:03:07;;;;;;;9.10;5.53;;;16.50;99.90;;;;;;5067821;28;20057;-75
2023/09/27 08:05:53;;;;;;;7.22;5.32;;;16.50;99.90;;;;;;5083451;28;20048;-74
2023/09/27 08:08:40;;;;;;;9.55;5.35;;;16.70;99.90;;;;;;5109868;27;20036;-75
2023/09/27 08:11:27;;;;;;;8.90;5.03;;;16.80;99.90;;;;;;5113816;28;20130;-75
2023/09/27 08:14:16;;;;;;;6.80;4.60;;;16.90;99.90;;;;;;5086064;27;20071;-76
2023/09/27 08:17:02;;;;;;;7.78;5.00;;;17.10;99.90;;;;;;5110402;27;20135;-76
2023/09/27 08:19:49;;;;;;;6.82;4.70;;;17.10;99.90;;;;;;5074970;27;20064;-75
2023/09/27 08:22:36;;;;;;;8.15;4.70;;;17.20;99.90;;;;;;5099479;27;20045;-75
2023/09/27 08:25:22;;;;;;;8.23;4.82;;;17.30;99.90;;;;;;5086540;28;20056;-77
2023/09/27 08:28:09;;;;;;;7.05;4.55;;;17.40;99.90;;;;;;5082346;28;20470;-75
2023/09/27 08:30:59;;;;;;;8.20;4.88;;;17.50;99.90;;;;;;5079641;28;20035;-76
2023/09/27 08:33:44;;;;;;;6.43;4.40;;;17.60;99.90;;;;;;5084476;27;20032;-75
2023/09/27 08:36:30;;;;;;;9.05;4.80;;;17.80;99.90;;;;;;5104139;27;20353;-76
2023/09/27 08:39:16;;;;;;;6.88;3.97;;;18.00;99.90;;;;;;5072965;28;20040;-76
2023/09/27 08:42:02;;;;;;;5.15;3.75;;;18.20;99.90;;;;;;5066891;28;20081;-76
2023/09/27 08:44:48;;;;;;;4.10;3.60;;;18.30;99.90;;;;;;5071919;28;20067;-76
2023/09/27 08:47:34;;;;;;;5.53;3.72;;;18.40;99.90;;;;;;5089795;28;20207;-76
2023/09/27 08:50:22;;;;;;;5.78;3.80;;;18.50;99.90;;;;;;5099683;28;20118;-75
2023/09/27 08:53:08;;;;;;;6.57;3.20;;;18.40;99.90;;;;;;5070068;28;20119;-76
2023/09/27 08:55:53;;;;;;;5.43;3.35;;;18.60;99.90;;;;;;5069866;28;20040;-76
2023/09/27 08:58:39;;;;;;;4.65;3.20;;;18.70;99.90;;;;;;5062825;28;20044;-76
2023/09/27 09:01:28;;;;;;;7.55;3.28;;;18.80;99.90;;;;;;5072246;28;20058;-76
2023/09/27 09:04:13;;;;;;;;;;;18.90;99.90;;;;;;5103225;28;20039;-76
2023/09/27 09:07:01;;;;;;;4.80;3.17;;;18.90;99.90;;;;;;5105839;28;20402;-76
2023/09/27 09:09:47;;;;;;;5.22;2.97;;;19.00;99.90;;;;;;5075744;28;20119;-77
2023/09/27 09:12:33;;;;;;;5.25;3.17;;;19.00;99.90;;;;;;5097807;28;20032;-73
2023/09/27 09:15:35;;;;;;;5.85;3.30;;;19.10;99.90;;;;;;5073941;27;20058;-73
2023/09/27 09:18:31;;;;;;;5.57;3.05;;;19.10;99.90;;;;;;5074371;28;20093;-76
2023/09/27 09:21:21;;;;;;;6.85;3.60;;;19.10;99.90;;;;;;5077226;27;20042;-77
2023/09/27 09:24:19;;;;;;;4.63;2.88;;;19.30;99.90;;;;;;5092701;27;20367;-77
2023/09/27 09:27:09;;;;;;;4.07;2.97;;;19.40;99.90;;;;;;5081297;28;20050;-76
2023/09/27 09:29:55;;;;;;;5.68;2.90;;;19.50;99.90;;;;;;5069609;28;20127;-74
2023/09/27 09:32:50;;;;;;;8.18;3.40;;;19.60;99.90;;;;;;5093998;27;20090;-75
2023/09/27 09:35:36;;;;;;;5.63;3.03;;;19.70;99.90;;;;;;5076109;28;20753;-74
2023/09/27 09:38:30;;;;;;;6.00;3.30;;;19.90;99.90;;;;;;5080167;27;20051;-75
2023/09/27 09:41:16;;;;;;;4.70;2.90;;;20.10;99.90;;;;;;5070893;28;20035;-76
2023/09/27 09:44:29;;;;;;;5.55;3.00;;;20.30;99.90;;;;;;5072094;28;20675;-76
2023/09/27 09:47:17;;;;;;;4.60;3.08;;;20.50;99.90;;;;;;5101438;27;20123;-76
2023/09/27 09:50:06;;;;;;;6.68;3.30;;;20.80;99.90;;;;;;5083917;28;20743;-76
2023/09/27 09:52:58;;;;;;;7.05;2.92;;;20.80;99.90;;;;;;5069570;28;20342;-76
2023/09/27 09:55:49;;;;;;;4.97;2.47;;;20.80;99.90;;;;;;5084369;28;20370;-77
2023/09/27 09:58:54;;;;;;;6.47;2.70;;;20.90;99.90;;;;;;5094331;27;20100;-76
2023/09/27 10:01:40;;;;;;;5.90;3.10;;;20.90;99.90;;;;;;5081737;28;20046;-76
2023/09/27 10:04:26;;;;;;;4.90;2.97;;;20.90;99.90;;;;;;5093197;27;20046;-76
2023/09/27 10:07:14;;;;;;;6.70;3.20;;;21.00;99.90;;;;;;5085857;27;20131;-76
2023/09/27 10:10:00;;;;;;;5.13;2.28;;;21.10;99.90;;;;;;5077363;27;20093;-76
2023/09/27 10:12:47;;;;;;;5.80;2.42;;;21.10;99.90;;;;;;5075322;28;20036;-76
2023/09/27 10:15:33;;;;;;;5.55;3.05;;;21.40;99.90;;;;;;5083646;28;20073;-75
2023/09/27 10:18:22;;;;;;;6.68;2.33;;;21.50;99.90;;;;;;5079555;27;20039;-76
2023/09/27 10:21:10;;;;;;;5.68;2.40;;;21.70;99.90;;;;;;5121185;27;20039;-77
2023/09/27 10:24:01;;;;;;;;;;;22.00;99.90;;;;;;5084482;28;20054;-76
2023/09/27 10:26:47;;;;;;;3.22;2.10;;;22.10;99.90;;;;;;5099519;28;20000;-76
2023/09/27 10:29:53;;;;;;;4.72;2.22;;;22.30;99.90;;;;;;5063475;28;20031;-77
2023/09/27 10:32:39;;;;;;;4.50;2.42;;;22.40;99.90;;;;;;5076981;28;20043;-75
2023/09/27 10:35:27;;;;;;;5.32;2.33;;;22.50;99.90;;;;;;5084987;28;20047;-75
2023/09/27 10:38:15;;;;;;;6.68;2.15;;;22.60;99.90;;;;;;5088481;28;20122;-75
2023/09/27 10:41:03;;;;;;;4.15;2.33;;;22.80;99.90;;;;;;5090039;28;20047;-75
2023/09/27 10:43:49;;;;;;;5.05;2.38;;;23.10;99.90;;;;;;5054286;28;20047;-76
2023/09/27 10:46:45;;;;;;;5.55;2.40;;;23.40;99.90;;;;;;5071348;28;20062;-77
2023/09/27 10:49:38;;;;;;;5.00;1.95;;;24.10;99.50;;;;;;5096261;28;20077;-78
2023/09/27 10:52:26;;;;;;;7.13;2.15;;;24.60;98.70;;;;;;5068899;28;20032;-77
2023/09/27 10:55:13;;;;;;;7.05;2.50;;;24.80;98.70;;;;;;5073253;28;20463;-78
2023/09/27 10:57:59;;;;;;;4.88;1.80;;;24.90;98.50;;;;;;5079570;28;20405;-78
2023/09/27 11:01:00;;;;;;;9.40;2.08;;;25.10;98.30;;;;;;5060869;28;20102;-78
2023/09/27 11:03:46;;;;;;;9.25;2.42;;;25.20;98.40;;;;;;5085340;28;20359;-78
2023/09/27 11:06:32;;;;;;;4.28;2.05;;;25.20;98.30;;;;;;5092993;28;20054;-76
2023/09/27 11:09:23;;;;;;;6.55;2.13;;;25.40;98.40;;;;;;5097123;27;20037;-77
2023/09/27 11:12:09;;;;;;;4.32;2.40;;;25.40;98.10;;;;;;5091999;28;20076;-76
2023/09/27 11:14:56;;;;;;;6.90;2.00;;;25.40;97.70;;;;;;5104224;28;20065;-78
2023/09/27 11:17:42;;;;;;;6.38;2.20;;;25.50;98.00;;;;;;5090142;28;20065;-77
2023/09/27 11:20:28;;;;;;;3.83;2.40;;;25.50;97.20;;;;;;5073767;28;20118;-77
2023/09/27 11:23:14;;;;;;;8.02;2.75;;;25.50;96.80;;;;;;5103383;27;20442;-78
2023/09/27 11:26:05;;;;;;;5.80;2.15;;;25.60;97.60;;;;;;5087136;28;20063;-77
2023/09/27 11:29:02;;;;;;;7.93;2.10;;;25.60;97.30;;;;;;5093597;28;20047;-77
2023/09/27 11:31:54;;;;;;;5.30;2.20;;;25.60;97.70;;;;;;5062845;28;20046;-77
2023/09/27 11:34:39;;;;;;;6.38;2.75;;;25.70;96.10;;;;;;5072089;27;20044;-76
2023/09/27 11:37:26;;;;;;;6.10;2.40;;;25.60;95.70;;;;;;5088974;28;20039;-76
2023/09/27 11:40:12;;;;;;;6.45;2.72;;;25.60;96.80;;;;;;5102249;28;20054;-77
2023/09/27 11:42:58;;;;;;;7.18;2.70;;;25.60;96.40;;;;;;5089934;27;20771;-77
2023/09/27 11:45:46;;;;;;;7.18;2.78;;;25.70;96.80;;;;;;5072126;28;20043;-77
2023/09/27 11:48:32;;;;;;;8.18;3.13;;;25.60;96.90;;;;;;5077968;27;20124;-76
2023/09/27 11:51:19;;;;;;;8.00;3.08;;;25.60;96.10;;;;;;5069956;28;20082;-75
2023/09/27 11:54:05;;;;;;;7.53;3.60;;;25.40;96.40;;;;;;5084273;28;20048;-77
2023/09/27 11:56:53;;;;;;;7.47;3.47;;;25.30;96.50;;;;;;5063079;28;20039;-77
2023/09/27 11:59:39;;;;;;;7.00;3.55;;;25.20;96.50;;;;;;5089559;28;20195;-77
2023/09/27 12:02:27;;;;;;;6.22;3.30;;;25.20;96.10;;;;;;5091495;27;20070;-77
2023/09/27 12:05:13;;;;;;;6.47;3.28;;;25.10;96.50;;;;;;5072866;28;20048;-77
2023/09/27 12:08:03;;;;;;;9.00;3.67;;;25.20;96.70;;;;;;5065720;28;20044;-77
2023/09/27 12:10:49;;;;;;;8.57;3.83;;;25.30;96.50;;;;;;5080671;28;20562;-77
2023/09/27 12:13:35;;;;;;;7.00;3.28;;;25.40;96.70;;;;;;5068344;28;20067;-77
2023/09/27 12:16:21;;;;;;;8.63;3.05;;;25.50;96.70;;;;;;5065932;28;20036;-76
2023/09/27 12:19:08;;;;;;;6.57;3.75;;;25.60;96.40;;;;;;5091272;28;20051;-77
2023/09/27 12:21:54;;;;;;;11.43;3.95;;;25.50;95.70;;;;;;5087452;28;20153;-76
2023/09/27 12:24:41;;;;;;;6.15;3.58;;;25.70;96.40;;;;;;5085890;28;20766;-77
2023/09/27 12:27:27;;;;;;;11.25;3.70;;;25.50;95.30;;;;;;5071530;28;20464;-76
2023/09/27 12:30:13;;;;;;;7.40;3.53;;;25.70;95.70;;;;;;5081736;28;20040;-76
2023/09/27 12:32:59;;;;;;;9.98;3.80;;;25.90;95.20;;;;;;5066738;28;20046;-76
2023/09/27 12:35:46;;;;;;;9.80;3.47;;;26.10;94.90;;;;;;5083795;28;20538;-76
2023/09/27 12:38:34;;;;;;;7.90;3.67;;;26.10;94.90;;;;;;5083344;28;20115;-75
2023/09/27 12:41:24;;;;;;;7.22;3.53;;;25.90;94.60;;;;;;5084111;28;20039;-75
2023/09/27 12:44:10;;;;;;;6.60;3.53;;;25.70;94.60;;;;;;5096963;27;20046;-76
2023/09/27 12:46:56;;;;;;;8.73;3.90;;;25.70;94.90;;;;;;5083179;28;21384;-77
2023/09/27 12:49:42;;;;;;;9.20;3.72;;;25.60;95.30;;;;;;5071647;27;20035;-76
2023/09/27 12:52:28;;;;;;;6.88;3.63;;;25.60;95.30;;;;;;5076679;28;20479;-76
2023/09/27 12:55:14;;;;;;;8.35;4.28;;;25.80;95.10;;;;;;5097208;27;20071;-77
2023/09/27 12:58:00;;;;;;;7.43;4.00;;;25.90;95.40;;;;;;5076194;28;20046;-76
2023/09/27 13:00:46;;;;;;;6.97;3.80;;;26.10;95.60;;;;;;5082248;28;20757;-76
2023/09/27 13:03:32;;;;;;;8.25;3.70;;;26.40;95.60;;;;;;5092844;28;20345;-77
2023/09/27 13:06:18;;;;;;;8.52;4.00;;;26.80;94.70;;;;;;5081767;28;20385;-77
2023/09/27 13:09:05;;;;;;;8.13;3.88;;;26.90;94.80;;;;;;5083148;27;20039;-77
2023/09/27 13:11:51;;;;;;;7.88;3.70;;;27.30;94.40;;;;;;5098377;28;20042;-76
2023/09/27 13:14:38;;;;;;;6.28;3.85;;;27.40;93.50;;;;;;5080145;28;20376;-75
2023/09/27 13:17:24;;;;;;;10.68;4.03;;;27.40;93.10;;;;;;5077775;28;20035;-77
2023/09/27 13:20:10;;;;;;;11.15;5.00;;;27.70;93.50;;;;;;5098225;28;20048;-77
2023/09/27 13:22:56;;;;;;;8.13;3.78;;;28.00;93.00;;;;;;5093675;27;20093;-76
2023/09/27 13:25:51;;;;;;;11.15;4.40;;;28.20;92.00;;;;;;5103817;28;20503;-77
2023/09/27 13:28:37;;;;;;;7.47;4.05;;;28.20;91.80;;;;;;5070133;27;20050;-77
2023/09/27 13:31:23;;;;;;;6.85;3.80;;;28.00;92.30;;;;;;5082542;27;20095;-77
2023/09/27 13:34:09;;;;;;;5.60;4.03;;;28.00;92.20;;;;;;5097248;27;20110;-77
2023/09/27 13:36:56;;;;;;;9.10;4.00;;;27.80;91.70;;;;;;5065862;28;20046;-75
2023/09/27 13:39:43;;;;;;;12.57;4.55;;;27.50;92.30;;;;;;5079297;28;20070;-75
2023/09/27 13:42:31;;;;;;;8.05;3.83;;;27.20;92.50;;;;;;5087887;28;20048;-75
2023/09/27 13:45:18;;;;;;;7.65;4.45;;;27.00;93.20;;;;;;5105038;27;20039;-75
2023/09/27 13:48:05;;;;;;;8.32;4.90;;;26.70;92.60;;;;;;5079795;28;20173;-76
2023/09/27 13:50:51;;;;;;;8.33;4.13;;;26.40;93.40;;;;;;5100437;27;20896;-75
2023/09/27 13:53:37;;;;;;;9.00;4.55;;;26.30;93.90;;;;;;5095148;28;20035;-75
2023/09/27 13:56:23;;;;;;;8.77;4.60;;;26.10;94.20;;;;;;5093788;28;20560;-75
2023/09/27 13:59:09;;;;;;;10.30;4.85;;;26.10;94.10;;;;;;5080816;28;20053;-75
2023/09/27 14:01:55;;;;;;;9.60;4.88;;;25.90;94.30;;;;;;5079761;28;20708;-75
2023/09/27 14:04:42;;;;;;;6.63;4.53;;;25.90;95.10;;;;;;5096209;27;20712;-75
2023/09/27 14:07:29;;;;;;;9.50;4.60;;;25.80;95.20;;;;;;5077370;28;20050;-75
2023/09/27 14:10:15;;;;;;;9.15;4.60;;;25.90;95.60;;;;;;5067817;28;20032;-75
2023/09/27 14:13:02;;;;;;;11.77;5.15;;;25.90;95.80;;;;;;5079257;28;20056;-75
2023/09/27 14:15:48;;;;;;;7.80;4.50;;;25.90;96.20;;;;;;5083127;27;20050;-77
2023/09/27 14:18:34;;;;;;;10.48;5.10;;;25.80;96.30;;;;;;5080242;28;20032;-77
2023/09/27 14:21:20;;;;;;;7.05;4.57;;;25.80;96.30;;;;;;5096518;27;20114;-78
2023/09/27 14:24:06;;;;;;;11.48;5.20;;;25.80;96.50;;;;;;5090686;28;20031;-76
2023/09/27 14:26:52;;;;;;;7.75;5.75;;;25.70;96.80;;;;;;5096028;27;20062;-77
2023/09/27 14:29:38;;;;;;;12.07;5.03;;;25.60;96.60;;;;;;5114767;28;20031;-77